»·PEaware :: DCM720 49X-L52

DCM720 :: 49X-L52

FLIGHT INFORMATION

Flight Status: Arrived
Operator: DotCom
More flights by this operator :: More flights under this callsign
Pilot: Shawn N. (11060)
Aircraft: SOCATA TBM-900
(TBM9)
More flights by this aircraft type
Origin: 49X Chemehuevi Valley
United States
Destination: L52 Oceano Co
United States
More flights between these airports :: More routes between these airports
Route: +EED J6 PMD V137 GMN FLW
File this flight plan on PilotEdge
Remarks:
Altitude:
(Current/Filed)
28,000ft
Speed:
(Current/Filed)
300kts
Departed: 20-Oct-18 02:14 PM
Arrived: 20-Oct-18 03:34 PM
Distance/Time
Traveled:
307nm/1:19
Distance/Time
To Go:
Arrived

Flight Plot

Page will automatically refresh every two minutes.

Flight plan parsing failed; only flown route is shown


Map Options




Map Legend


Flown Route
Filed Route
Departure Airport
Arrival Airport
Navaid (VOR, NDB)
Fix

Horizontal Profiles

Position Reports

Time Latitude Longitude Heading Altitude Ground
Speed
20-Oct-18 14:11 34.529086 -114.430441 0 614ft 0kts
20-Oct-18 14:12 34.529086 -114.430441 0 614ft 0kts
20-Oct-18 14:13 34.529075 -114.430683 186 614ft 8kts
20-Oct-18 14:14 34.524024 -114.431005 178 614ft 13kts
20-Oct-18 14:15 34.522084 -114.431826 298 614ft 8kts
20-Oct-18 14:16 34.547548 -114.428817 1 1726ft 130kts
20-Oct-18 14:17 34.587615 -114.433852 341 3740ft 167kts
20-Oct-18 14:18 34.634743 -114.447606 341 6015ft 182kts
20-Oct-18 14:19 34.685256 -114.459804 354 8150ft 189kts
20-Oct-18 14:20 34.737117 -114.468939 355 10072ft 193kts
20-Oct-18 14:21 34.766859 -114.511943 265 11894ft 195kts
20-Oct-18 14:22 34.768384 -114.575540 263 14290ft 187kts
20-Oct-18 14:23 34.769824 -114.639391 262 16256ft 192kts
20-Oct-18 14:24 34.771260 -114.704435 261 18023ft 195kts
20-Oct-18 14:25 34.772675 -114.771190 262 19563ft 202kts
20-Oct-18 14:26 34.774130 -114.839908 262 20972ft 206kts
20-Oct-18 14:27 34.775568 -114.910218 262 22244ft 210kts
20-Oct-18 14:28 34.777018 -114.982677 263 24262ft 216kts
20-Oct-18 14:29 34.778433 -115.056404 263 26067ft 222kts
20-Oct-18 14:30 34.779848 -115.132451 263 27718ft 230kts
20-Oct-18 14:31 34.781096 -115.204778 264 27839ft 280kts
20-Oct-18 14:32 34.783160 -115.321972 265 27824ft 308kts
20-Oct-18 14:33 34.784900 -115.427444 265 27820ft 316kts
20-Oct-18 14:34 34.786286 -115.516284 265 27819ft 318kts
20-Oct-18 14:35 34.788114 -115.640332 265 27928ft 316kts
20-Oct-18 14:36 34.789175 -115.716847 264 27929ft 318kts
20-Oct-18 14:37 34.790351 -115.805799 264 27929ft 319kts
20-Oct-18 14:38 34.791680 -115.913137 264 27929ft 319kts
20-Oct-18 14:39 34.792906 -116.019552 264 27929ft 319kts
20-Oct-18 14:40 34.794051 -116.127137 264 27929ft 319kts
20-Oct-18 14:41 34.795098 -116.234535 264 27874ft 320kts
20-Oct-18 14:42 34.796051 -116.341958 265 27874ft 320kts
20-Oct-18 14:43 34.796908 -116.448100 265 27874ft 320kts
20-Oct-18 14:44 34.788178 -116.553765 258 27874ft 316kts
20-Oct-18 14:45 34.778201 -116.655850 257 27874ft 316kts
20-Oct-18 14:46 34.769342 -116.745629 257 27874ft 316kts
20-Oct-18 14:47 34.758878 -116.850725 258 27874ft 317kts
20-Oct-18 14:48 34.748519 -116.954096 257 28066ft 314kts
20-Oct-18 14:49 34.737864 -117.059133 257 28067ft 315kts
20-Oct-18 14:50 34.727114 -117.164347 257 28102ft 316kts
20-Oct-18 14:51 34.716176 -117.270128 258 28101ft 316kts
20-Oct-18 14:52 34.705187 -117.376170 258 28102ft 317kts
20-Oct-18 14:53 34.694084 -117.482086 258 28101ft 318kts
20-Oct-18 14:54 34.682899 -117.587879 258 28159ft 316kts
20-Oct-18 14:55 34.673224 -117.678631 258 28193ft 317kts
20-Oct-18 14:56 34.661952 -117.783376 258 28193ft 317kts
20-Oct-18 14:57 34.650840 -117.886188 258 28140ft 319kts
20-Oct-18 14:58 34.639540 -117.989737 258 28082ft 319kts
20-Oct-18 14:59 34.636146 -118.091756 282 28075ft 327kts
20-Oct-18 15:00 34.658339 -118.186713 281 28074ft 326kts
20-Oct-18 15:01 34.658339 -118.186713 281 28074ft 326kts
20-Oct-18 15:09 34.694117 -118.335180 0 27996ft 0kts
20-Oct-18 15:10 34.712703 -118.412156 282 28018ft 283kts
20-Oct-18 15:11 34.735768 -118.508414 282 28097ft 310kts
20-Oct-18 15:12 34.757577 -118.610966 279 28094ft 320kts
20-Oct-18 15:13 34.775368 -118.706539 279 28093ft 324kts
20-Oct-18 15:14 34.794086 -118.807632 279 27126ft 334kts
20-Oct-18 15:15 34.820188 -118.916564 286 25767ft 344kts
20-Oct-18 15:16 34.851192 -119.022841 287 24427ft 344kts
20-Oct-18 15:17 34.881873 -119.128285 287 23967ft 326kts
20-Oct-18 15:18 34.912831 -119.235238 287 22010ft 345kts
20-Oct-18 15:19 34.944656 -119.345494 288 20029ft 345kts
20-Oct-18 15:20 34.976094 -119.454850 288 18157ft 339kts
20-Oct-18 15:21 35.005962 -119.559180 289 16294ft 324kts
20-Oct-18 15:22 35.034591 -119.659528 289 14336ft 318kts
20-Oct-18 15:23 35.062000 -119.755856 289 13993ft 285kts
20-Oct-18 15:24 35.087592 -119.846160 289 13998ft 280kts
20-Oct-18 15:25 35.094105 -119.939451 271 14009ft 279kts
20-Oct-18 15:26 35.095372 -120.034669 271 12393ft 294kts
20-Oct-18 15:27 35.096575 -120.131263 270 10507ft 268kts
20-Oct-18 15:28 35.097622 -120.221303 271 8779ft 264kts
20-Oct-18 15:29 35.098590 -120.310625 272 6874ft 264kts
20-Oct-18 15:30 35.097539 -120.397992 251 4841ft 258kts
20-Oct-18 15:31 35.064018 -120.468489 244 2938ft 230kts
20-Oct-18 15:32 35.055458 -120.533337 296 1261ft 169kts
20-Oct-18 15:33 35.074323 -120.572173 307 551ft 109kts
20-Oct-18 15:34 35.088947 -120.599359 305 443ft 83kts
20-Oct-18 15:35 35.101337 -120.621974 305 16ft 44kts
20-Oct-18 15:36 35.101819 -120.624652 23 13ft 0kts
20-Oct-18 15:37 35.101819 -120.624652 23 13ft 0kts
20-Oct-18 15:38 35.101819 -120.624652 23 13ft 0kts
20-Oct-18 15:39 35.101819 -120.624652 23 13ft 0kts
20-Oct-18 15:40 35.101819 -120.624652 23 13ft 0kts
20-Oct-18 15:41 35.101819 -120.624652 23 13ft 0kts
20-Oct-18 15:42 35.101819 -120.624652 23 13ft 0kts
20-Oct-18 15:43 35.101819 -120.624652 23 13ft 0kts
20-Oct-18 15:44 35.101819 -120.624652 23 13ft 0kts
20-Oct-18 15:45 35.101819 -120.624652 23 13ft 0kts
20-Oct-18 15:46 35.101819 -120.624652 23 13ft 0kts
20-Oct-18 15:47 35.101819 -120.624652 23 13ft 0kts
20-Oct-18 15:48 35.101819 -120.624652 23 13ft 0kts
20-Oct-18 15:49 35.101819 -120.624652 23 13ft 0kts
20-Oct-18 15:50 35.101819 -120.624652 23 13ft 0kts

Navigation Log

Ident Type
Flight plan parsing failed, navigation log unavailable